Time;durP1;ratioP1;P1;durP2;ratioP2;P2;SDS_P1;SDS_P2;PMS_P1;PMS_P2;Temp;Humidity;BMP_temperature;BMP_pressure;BME280_temperature;BME280_humidity;BME280_pressure;Samples;Min_cycle;Max_cycle;Signal;HPM_P1;HPM_P2
2023/07/30 00:02:17;;;;;;;35.47;32.47;;;;;;;17.48;100.00;100720.34;5033674;28;20052;-85
2023/07/30 00:04:44;;;;;;;44.67;40.63;;;;;;;17.59;100.00;100722.91;5035087;28;20434;-86
2023/07/30 00:07:13;;;;;;;38.90;35.70;;;;;;;17.84;100.00;100716.19;5029500;28;20043;-85
2023/07/30 00:09:40;;;;;;;38.30;35.50;;;;;;;17.95;100.00;100717.09;5035389;28;20048;-85
2023/07/30 00:12:08;;;;;;;41.72;38.47;;;;;;;17.37;100.00;100716.75;5033998;28;20053;-86
2023/07/30 00:14:35;;;;;;;35.70;32.60;;;;;;;17.38;100.00;100719.16;5032578;28;21198;-80
2023/07/30 00:17:02;;;;;;;37.60;34.60;;;;;;;17.59;100.00;100704.09;5034182;28;20513;-81
2023/07/30 00:19:29;;;;;;;40.28;36.97;;;;;;;17.13;100.00;100716.19;5035122;28;20424;-81
2023/07/30 00:21:56;;;;;;;41.92;38.33;;;;;;;17.42;100.00;100715.97;5030038;28;20050;-81
2023/07/30 00:24:24;;;;;;;36.67;33.80;;;;;;;17.38;100.00;100713.78;5029822;28;20544;-86
2023/07/30 00:26:54;;;;;;;41.97;38.55;;;;;;;17.32;100.00;100700.56;5035601;28;20041;-86
2023/07/30 00:29:20;;;;;;;47.80;43.90;;;;;;;17.29;100.00;100707.25;5034754;28;20047;-80
2023/07/30 00:31:47;;;;;;;43.10;39.70;;;;;;;17.24;100.00;100704.50;5031983;28;20049;-81
2023/07/30 00:34:14;;;;;;;39.53;36.40;;;;;;;17.36;100.00;100705.16;5033773;28;20049;-80
2023/07/30 00:36:41;;;;;;;38.78;35.78;;;;;;;16.83;100.00;100700.50;5034172;28;20052;-81
2023/07/30 00:39:11;;;;;;;39.85;36.65;;;;;;;16.90;100.00;100701.94;5028038;28;20053;-80
2023/07/30 00:41:39;;;;;;;40.72;37.58;;;;;;;17.20;100.00;100703.38;5032654;28;20038;-80
2023/07/30 00:44:06;;;;;;;38.28;35.00;;;;;;;17.10;100.00;100703.28;5027694;28;20049;-81
2023/07/30 00:46:33;;;;;;;40.97;37.72;;;;;;;16.86;100.00;100700.00;5029168;28;20053;-80
2023/07/30 00:49:00;;;;;;;38.35;35.25;;;;;;;16.94;100.00;100702.25;5030079;28;20093;-81
2023/07/30 00:51:28;;;;;;;40.83;37.33;;;;;;;16.94;100.00;100712.97;5030060;28;20050;-80
2023/07/30 00:53:56;;;;;;;39.88;36.45;;;;;;;17.22;100.00;100717.38;5029596;28;20053;-80
2023/07/30 00:56:25;;;;;;;39.42;36.15;;;;;;;17.09;100.00;100696.25;5030592;28;20563;-81
2023/07/30 00:58:54;;;;;;;41.47;38.17;;;;;;;17.34;100.00;100706.50;5030038;28;20140;-80
2023/07/30 01:01:21;;;;;;;35.60;32.67;;;;;;;17.45;100.00;100699.38;5029191;28;20513;-80
2023/07/30 01:03:49;;;;;;;34.33;31.65;;;;;;;17.80;100.00;100697.09;5029415;28;20559;-80
2023/07/30 01:06:17;;;;;;;38.28;35.47;;;;;;;17.84;100.00;100695.50;5029072;28;20049;-81
2023/07/30 01:08:44;;;;;;;39.22;36.10;;;;;;;17.87;100.00;100694.19;5027774;28;20501;-80
2023/07/30 01:11:11;;;;;;;40.15;37.25;;;;;;;17.95;100.00;100698.31;5029396;28;20052;-80
2023/07/30 01:13:40;;;;;;;36.15;33.35;;;;;;;18.00;100.00;100684.88;5028418;28;20051;-80
2023/07/30 01:16:08;;;;;;;43.20;40.20;;;;;;;18.10;100.00;100686.88;5029139;28;20119;-85
2023/07/30 01:18:35;;;;;;;40.45;37.35;;;;;;;18.13;100.00;100689.03;5031305;28;20144;-80
2023/07/30 01:21:04;;;;;;;37.75;35.05;;;;;;;18.10;100.00;100692.25;5032039;28;20049;-85
2023/07/30 01:23:31;;;;;;;42.53;39.35;;;;;;;17.51;100.00;100687.63;5033334;28;20057;-80
2023/07/30 01:26:04;;;;;;;40.88;37.67;;;;;;;17.31;100.00;100691.72;5033286;28;20046;-80
2023/07/30 01:28:38;;;;;;;43.92;40.15;;;;;;;17.05;100.00;100693.28;5034179;28;20045;-80
2023/07/30 01:31:07;;;;;;;38.83;35.72;;;;;;;17.22;100.00;100695.09;5032346;28;20123;-80
2023/07/30 01:33:37;;;;;;;38.90;35.50;;;;;;;17.06;100.00;100694.06;5031389;28;20053;-80
2023/07/30 01:36:07;;;;;;;45.40;42.00;;;;;;;17.63;100.00;100685.59;5033030;28;20052;-81
2023/07/30 01:38:38;;;;;;;46.50;43.05;;;;;;;17.29;100.00;100699.19;5034505;28;20071;-80
2023/07/30 01:41:08;;;;;;;36.35;33.17;;;;;;;17.10;100.00;100690.66;5032444;28;20429;-80
2023/07/30 01:43:37;;;;;;;42.60;39.30;;;;;;;17.17;100.00;100696.63;5031976;28;20097;-79
2023/07/30 01:46:06;;;;;;;44.72;41.25;;;;;;;16.86;100.00;100697.31;5029334;28;20057;-80
2023/07/30 01:48:35;;;;;;;54.65;51.00;;;;;;;17.26;100.00;100686.28;5030489;28;20042;-80
2023/07/30 01:51:02;;;;;;;43.67;40.28;;;;;;;17.22;100.00;100687.84;5032892;28;20052;-80
2023/07/30 01:53:31;;;;;;;40.97;37.97;;;;;;;17.28;100.00;100683.34;5030491;28;20046;-80
2023/07/30 01:55:58;;;;;;;44.97;41.47;;;;;;;16.96;100.00;100688.59;5017604;28;20049;-80
2023/07/30 01:58:24;;;;;;;39.80;36.70;;;;;;;16.73;100.00;100682.34;5024414;28;20433;-80
2023/07/30 02:00:51;;;;;;;37.70;34.70;;;;;;;16.94;100.00;100686.97;5024582;28;20527;-80
2023/07/30 02:03:18;;;;;;;37.72;34.63;;;;;;;17.09;100.00;100682.84;5020092;28;20042;-80
2023/07/30 02:05:45;;;;;;;36.28;33.22;;;;;;;17.35;100.00;100683.97;5019840;28;20054;-80
2023/07/30 02:08:15;;;;;;;36.55;33.47;;;;;;;16.91;100.00;100682.13;5019959;28;20052;-80
2023/07/30 02:10:43;;;;;;;37.72;34.53;;;;;;;16.61;100.00;100681.63;5021430;28;20046;-80
2023/07/30 02:13:10;;;;;;;37.50;34.30;;;;;;;16.83;100.00;100687.09;5019053;28;20049;-80
2023/07/30 02:15:42;;;;;;;37.70;34.40;;;;;;;16.35;100.00;100691.19;5019964;28;20045;-80
2023/07/30 02:18:10;;;;;;;37.92;34.90;;;;;;;16.85;100.00;100693.00;5019051;28;20134;-80
2023/07/30 02:20:37;;;;;;;36.05;32.95;;;;;;;16.93;100.00;100688.03;5019701;28;20076;-80
2023/07/30 02:23:04;;;;;;;40.90;37.70;;;;;;;17.02;100.00;100688.41;5021283;28;20458;-80
2023/07/30 02:25:30;;;;;;;37.38;34.17;;;;;;;16.63;100.00;100696.44;5031634;28;20041;-80
2023/07/30 02:28:01;;;;;;;40.33;36.92;;;;;;;16.76;100.00;100689.94;5035009;28;20041;-80
2023/07/30 02:30:28;;;;;;;37.95;34.65;;;;;;;16.30;100.00;100693.78;5030814;28;20041;-80
2023/07/30 02:32:55;;;;;;;38.63;35.13;;;;;;;16.27;100.00;100698.56;5030247;28;20053;-85
2023/07/30 02:35:22;;;;;;;37.83;34.35;;;;;;;16.55;100.00;100688.81;5037044;28;20044;-85
2023/07/30 02:37:49;;;;;;;38.53;35.30;;;;;;;16.66;100.00;100687.09;5030359;28;20059;-85
2023/07/30 02:40:16;;;;;;;36.08;33.28;;;;;;;16.97;100.00;100692.88;5034795;28;20046;-85
2023/07/30 02:42:43;;;;;;;41.00;37.95;;;;;;;16.81;100.00;100691.88;5031440;28;20083;-84
2023/07/30 02:45:12;;;;;;;40.83;36.83;;;;;;;16.66;100.00;100695.94;5034621;28;20055;-80
2023/07/30 02:47:39;;;;;;;41.55;38.28;;;;;;;16.41;100.00;100699.06;5031118;28;20056;-80
2023/07/30 02:50:07;;;;;;;38.47;35.33;;;;;;;16.51;100.00;100697.59;5032341;28;20521;-80
2023/07/30 02:52:34;;;;;;;33.40;30.30;;;;;;;16.25;100.00;100698.03;5031291;28;20044;-80
2023/07/30 02:55:01;;;;;;;36.22;32.70;;;;;;;16.37;100.00;100705.13;5027704;28;20049;-80
2023/07/30 02:57:27;;;;;;;34.67;31.58;;;;;;;16.30;100.00;100699.94;5032766;28;20052;-80
2023/07/30 02:59:54;;;;;;;31.52;28.83;;;;;;;16.52;100.00;100696.53;5033001;28;20057;-80
2023/07/30 03:02:23;;;;;;;31.25;28.45;;;;;;;16.59;100.00;100689.94;5031199;28;20049;-80
2023/07/30 03:04:49;;;;;;;32.50;29.50;;;;;;;16.36;100.00;100701.66;5034957;28;20046;-80
2023/07/30 03:07:18;;;;;;;31.73;29.08;;;;;;;16.64;100.00;100700.75;5032617;28;20045;-80
2023/07/30 03:09:45;;;;;;;30.80;27.77;;;;;;;16.76;100.00;100703.34;5035878;28;20095;-80
2023/07/30 03:12:11;;;;;;;29.55;27.13;;;;;;;16.73;100.00;100701.13;5031058;28;20049;-80
2023/07/30 03:14:38;;;;;;;30.75;28.13;;;;;;;16.39;100.00;100703.84;5032630;28;20045;-79
2023/07/30 03:17:06;;;;;;;30.50;28.02;;;;;;;16.70;100.00;100710.50;5025640;28;20053;-80
2023/07/30 03:19:34;;;;;;;30.95;28.25;;;;;;;16.71;100.00;100705.94;5029547;28;20045;-79
2023/07/30 03:22:01;;;;;;;30.05;27.65;;;;;;;16.64;100.00;100710.66;5030738;28;20041;-79
2023/07/30 03:24:28;;;;;;;29.13;26.63;;;;;;;16.84;100.00;100710.97;5034794;28;20433;-84
2023/07/30 03:26:55;;;;;;;29.35;26.77;;;;;;;16.81;100.00;100713.34;5031212;28;20045;-84
2023/07/30 03:29:21;;;;;;;29.20;26.27;;;;;;;16.99;100.00;100728.34;5035796;28;20056;-84
2023/07/30 03:31:48;;;;;;;31.27;28.05;;;;;;;17.08;100.00;100719.59;5035701;28;20045;-84
2023/07/30 03:34:15;;;;;;;29.58;26.83;;;;;;;17.13;100.00;100722.38;5036488;28;20046;-84
2023/07/30 03:36:44;;;;;;;30.52;28.02;;;;;;;17.15;100.00;100730.16;5034959;28;20045;-84
2023/07/30 03:39:10;;;;;;;32.65;29.95;;;;;;;17.12;100.00;100717.22;5032356;28;20042;-80
2023/07/30 03:41:37;;;;;;;32.90;30.02;;;;;;;17.32;100.00;100728.22;5033251;28;20489;-80
2023/07/30 03:44:05;;;;;;;29.58;27.17;;;;;;;17.33;100.00;100731.72;5035111;28;20046;-80
2023/07/30 03:46:32;;;;;;;29.30;26.42;;;;;;;17.34;100.00;100723.44;5035204;28;20114;-80
2023/07/30 03:48:59;;;;;;;28.60;26.10;;;;;;;17.36;100.00;100734.69;5034267;28;20063;-80
2023/07/30 03:51:26;;;;;;;29.08;26.67;;;;;;;17.40;100.00;100735.03;5032755;28;20441;-80
2023/07/30 03:53:54;;;;;;;27.55;25.05;;;;;;;17.50;100.00;100737.03;5033783;28;20049;-80
2023/07/30 03:56:21;;;;;;;26.65;24.55;;;;;;;17.55;100.00;100739.75;5035103;28;20432;-79
2023/07/30 03:58:48;;;;;;;27.55;24.90;;;;;;;17.66;100.00;100736.13;5034091;28;20418;-80
2023/07/30 04:01:15;;;;;;;27.20;25.00;;;;;;;17.80;100.00;100742.75;5036242;28;20052;-84
2023/07/30 04:03:41;;;;;;;27.40;24.95;;;;;;;17.63;100.00;100734.75;5040237;28;20055;-84
2023/07/30 04:06:08;;;;;;;27.40;24.73;;;;;;;17.66;100.00;100741.50;5027385;28;20056;-84
2023/07/30 04:08:35;;;;;;;27.65;25.25;;;;;;;17.83;100.00;100744.13;5026053;28;20095;-84
2023/07/30 04:11:04;;;;;;;26.75;24.55;;;;;;;18.01;100.00;100742.97;5026607;28;20075;-84
2023/07/30 04:13:31;;;;;;;26.27;24.00;;;;;;;18.10;100.00;100748.69;5020795;28;20042;-84
2023/07/30 04:15:57;;;;;;;26.52;24.55;;;;;;;18.36;100.00;100749.69;5015022;28;20130;-84
2023/07/30 04:18:24;;;;;;;25.77;23.77;;;;;;;18.21;100.00;100750.38;5031835;28;20056;-84
2023/07/30 04:20:54;;;;;;;25.17;23.08;;;;;;;18.37;100.00;100748.66;5028370;28;20049;-84
2023/07/30 04:23:21;;;;;;;23.98;22.08;;;;;;;18.52;100.00;100748.75;5024635;28;20053;-84
2023/07/30 04:25:50;;;;;;;23.15;21.35;;;;;;;18.58;100.00;100754.97;5033157;28;20045;-84
2023/07/30 04:28:18;;;;;;;25.67;23.63;;;;;;;18.67;100.00;100753.41;5015977;28;20438;-84
2023/07/30 04:30:46;;;;;;;22.70;21.00;;;;;;;18.81;100.00;100748.44;5013673;28;20513;-84
2023/07/30 04:33:13;;;;;;;23.02;20.95;;;;;;;18.99;100.00;100754.19;5024146;28;20045;-80
2023/07/30 04:35:40;;;;;;;23.92;21.83;;;;;;;19.02;100.00;100752.88;5024355;28;20056;-80
2023/07/30 04:38:07;;;;;;;24.30;22.05;;;;;;;19.10;100.00;100752.38;5036789;28;20053;-80
2023/07/30 04:40:34;;;;;;;22.80;20.80;;;;;;;19.03;100.00;100749.09;5032982;28;20046;-79
2023/07/30 04:43:01;;;;;;;25.02;23.00;;;;;;;19.41;100.00;100747.13;5031365;28;20049;-80
2023/07/30 04:45:30;;;;;;;25.52;23.23;;;;;;;19.33;100.00;100739.53;5031044;28;20100;-81
2023/07/30 04:47:58;;;;;;;24.83;22.80;;;;;;;19.60;100.00;100753.63;5036667;28;20176;-80
2023/07/30 04:50:25;;;;;;;24.30;22.30;;;;;;;19.49;100.00;100746.63;5035623;28;20041;-80
2023/07/30 04:52:52;;;;;;;23.30;21.50;;;;;;;19.80;100.00;100744.03;5033862;28;20053;-80
2023/07/30 04:55:19;;;;;;;24.20;22.20;;;;;;;19.81;100.00;100751.84;5033677;28;20441;-80
2023/07/30 04:57:46;;;;;;;24.13;22.10;;;;;;;20.22;100.00;100751.91;5032155;28;20497;-80
2023/07/30 05:00:13;;;;;;;24.80;22.90;;;;;;;20.30;100.00;100753.22;5032774;28;20040;-80
2023/07/30 05:02:42;;;;;;;23.10;21.33;;;;;;;20.33;100.00;100752.69;5032749;28;20045;-80
2023/07/30 05:05:09;;;;;;;25.33;23.42;;;;;;;20.42;100.00;100748.38;5035002;28;20045;-79
2023/07/30 05:07:36;;;;;;;23.23;21.52;;;;;;;20.60;100.00;100757.84;5029577;28;20046;-84
2023/07/30 05:10:08;;;;;;;22.15;20.55;;;;;;;20.80;100.00;100760.50;5040059;28;20037;-84
2023/07/30 05:12:40;;;;;;;23.98;22.17;;;;;;;21.04;100.00;100758.03;5031752;28;20049;-84
2023/07/30 05:15:07;;;;;;;25.40;23.50;;;;;;;21.17;100.00;100756.63;5036566;28;20052;-84
2023/07/30 05:17:38;;;;;;;24.40;22.20;;;;;;;21.28;100.00;100747.41;5031196;28;20051;-80
2023/07/30 05:20:07;;;;;;;22.60;20.85;;;;;;;21.43;100.00;100756.56;5037110;28;20056;-80
2023/07/30 05:22:48;;;;;;;22.00;20.10;;;;;;;22.00;100.00;100740.81;5038600;28;20045;-80
2023/07/30 05:25:15;;;;;;;23.65;21.65;;;;;;;21.75;100.00;100747.19;5032906;28;20098;-80
2023/07/30 05:27:42;;;;;;;23.08;21.27;;;;;;;21.75;100.00;100741.78;5034781;28;20049;-80
2023/07/30 05:30:09;;;;;;;23.00;21.20;;;;;;;21.90;100.00;100747.91;5034133;28;20056;-79
2023/07/30 05:32:36;;;;;;;23.88;22.10;;;;;;;22.04;100.00;100756.19;5034712;28;20070;-80
2023/07/30 05:35:04;;;;;;;25.02;23.23;;;;;;;22.05;100.00;100757.81;5034286;28;20037;-80
2023/07/30 05:37:32;;;;;;;24.05;22.25;;;;;;;22.17;100.00;100762.91;5029666;28;20041;-80
2023/07/30 05:39:59;;;;;;;23.92;22.13;;;;;;;22.63;100.00;100757.09;5028646;28;20080;-80
2023/07/30 05:42:26;;;;;;;22.70;20.92;;;;;;;23.12;100.00;100747.13;5029788;28;20140;-80
2023/07/30 05:44:52;;;;;;;23.42;21.52;;;;;;;22.84;100.00;100758.53;5028916;28;20489;-80
2023/07/30 05:47:19;;;;;;;24.38;22.08;;;;;;;22.94;100.00;100749.50;5030484;28;20045;-80
2023/07/30 05:49:46;;;;;;;23.67;21.98;;;;;;;22.98;100.00;100753.25;5031112;28;20053;-80
2023/07/30 05:52:13;;;;;;;25.05;23.15;;;;;;;23.11;100.00;100746.31;5030574;28;20470;-80
2023/07/30 05:54:41;;;;;;;24.40;22.50;;;;;;;23.46;100.00;100744.28;5030124;28;20053;-80
2023/07/30 05:57:08;;;;;;;24.17;22.27;;;;;;;23.36;100.00;100749.81;5029273;28;20053;-80
2023/07/30 05:59:47;;;;;;;22.67;20.65;;;;;;;23.81;100.00;100739.47;5032431;28;20647;-86
2023/07/30 06:02:14;;;;;;;21.50;19.60;;;;;;;24.00;100.00;100745.69;5030106;28;20057;-80
2023/07/30 06:04:40;;;;;;;19.83;18.08;;;;;;;24.15;100.00;100744.66;5031461;28;20044;-80
2023/07/30 06:07:07;;;;;;;21.13;19.27;;;;;;;24.23;100.00;100743.97;5034683;28;20048;-85
2023/07/30 06:09:34;;;;;;;22.27;20.42;;;;;;;24.14;100.00;100745.72;5034445;28;20055;-80
2023/07/30 06:12:05;;;;;;;23.67;21.80;;;;;;;24.51;100.00;100738.63;5032450;28;20048;-80
2023/07/30 06:14:32;;;;;;;25.27;23.15;;;;;;;24.79;100.00;100723.19;5028303;28;20080;-81
2023/07/30 06:16:58;;;;;;;22.45;20.73;;;;;;;24.87;100.00;100733.34;5036102;28;20053;-81
2023/07/30 06:19:26;;;;;;;23.20;21.17;;;;;;;25.16;100.00;100741.22;5029939;28;20052;-80
2023/07/30 06:21:53;;;;;;;23.02;21.23;;;;;;;25.27;100.00;100737.19;5029641;28;20076;-81
2023/07/30 06:24:20;;;;;;;23.40;21.30;;;;;;;25.63;100.00;100732.88;5031257;28;20045;-81
2023/07/30 06:26:47;;;;;;;24.10;22.10;;;;;;;25.93;100.00;100728.66;5029164;28;20049;-82
2023/07/30 06:29:16;;;;;;;24.00;22.10;;;;;;;26.03;100.00;100731.16;5028435;28;20476;-81
2023/07/30 06:31:43;;;;;;;22.38;20.58;;;;;;;26.35;100.00;100729.28;5027774;28;20056;-82
2023/07/30 06:34:10;;;;;;;23.25;21.38;;;;;;;26.31;100.00;100726.38;5031395;28;20062;-87
2023/07/30 06:36:37;;;;;;;21.95;20.20;;;;;;;26.42;100.00;100730.44;5031905;28;20083;-81
2023/07/30 06:39:04;;;;;;;21.98;20.27;;;;;;;26.43;100.00;100723.88;5030489;28;20047;-81
2023/07/30 06:41:31;;;;;;;22.27;20.55;;;;;;;26.24;100.00;100723.31;5029545;28;20044;-81
2023/07/30 06:43:57;;;;;;;22.35;20.55;;;;;;;26.28;100.00;100721.56;5027844;28;20529;-81
2023/07/30 06:46:25;;;;;;;24.23;22.30;;;;;;;26.64;100.00;100718.72;5029427;28;20053;-82
2023/07/30 06:48:52;;;;;;;24.60;22.60;;;;;;;26.62;100.00;100714.72;5031244;28;20042;-81
2023/07/30 06:51:20;;;;;;;24.70;22.63;;;;;;;26.68;100.00;100719.69;5029992;28;20052;-81
2023/07/30 06:53:47;;;;;;;24.60;22.50;;;;;;;26.88;100.00;100721.06;5026574;28;20072;-81
2023/07/30 06:56:14;;;;;;;25.85;23.95;;;;;;;26.64;100.00;100718.72;5034554;28;20067;-82
2023/07/30 06:58:41;;;;;;;22.85;21.05;;;;;;;26.87;100.00;100714.03;5032249;28;20504;-81
2023/07/30 07:01:08;;;;;;;23.30;21.40;;;;;;;27.09;100.00;100715.84;5024209;28;20048;-82
2023/07/30 07:03:36;;;;;;;22.48;20.45;;;;;;;27.34;100.00;100708.84;5026248;28;20393;-82
2023/07/30 07:06:03;;;;;;;25.95;23.95;;;;;;;27.32;100.00;100702.94;5029172;28;20064;-82
2023/07/30 07:08:30;;;;;;;26.60;24.30;;;;;;;27.39;100.00;100702.47;5031818;28;20414;-82
2023/07/30 07:10:57;;;;;;;25.73;23.70;;;;;;;27.51;100.00;100710.00;5030358;28;20496;-82
2023/07/30 07:13:24;;;;;;;24.38;22.38;;;;;;;27.47;100.00;100701.63;5029449;28;20046;-82
2023/07/30 07:15:52;;;;;;;23.20;21.20;;;;;;;27.56;100.00;100712.56;5029179;28;20057;-83
2023/07/30 07:18:19;;;;;;;24.42;22.42;;;;;;;27.09;100.00;100695.97;5031887;28;20083;-81
2023/07/30 07:20:47;;;;;;;28.10;26.00;;;;;;;27.27;100.00;100700.34;5026851;28;20190;-81
2023/07/30 07:23:14;;;;;;;29.63;27.23;;;;;;;27.21;100.00;100693.44;5025092;28;20041;-81
2023/07/30 07:25:41;;;;;;;24.83;22.88;;;;;;;27.33;100.00;100692.81;5030273;28;20052;-82
2023/07/30 07:28:08;;;;;;;24.90;22.85;;;;;;;27.84;100.00;100693.97;5029638;28;20444;-82
2023/07/30 07:30:36;;;;;;;25.50;23.50;;;;;;;27.90;100.00;100692.69;5031703;28;20052;-82
2023/07/30 07:33:05;;;;;;;24.02;22.02;;;;;;;28.02;100.00;100692.81;5035102;28;20567;-81
2023/07/30 07:35:32;;;;;;;26.05;23.85;;;;;;;28.20;100.00;100692.78;5032208;28;20041;-81
2023/07/30 07:38:00;;;;;;;24.35;22.35;;;;;;;28.38;100.00;100686.13;5034013;28;20437;-81
2023/07/30 07:40:27;;;;;;;23.80;21.63;;;;;;;28.52;100.00;100684.03;5036916;28;20053;-81
2023/07/30 07:42:55;;;;;;;24.27;22.17;;;;;;;28.17;100.00;100680.59;5032239;28;20723;-81
2023/07/30 07:45:22;;;;;;;23.90;22.00;;;;;;;28.48;100.00;100676.81;5033170;28;20053;-81
2023/07/30 07:47:49;;;;;;;24.45;22.55;;;;;;;28.14;100.00;100683.97;5038441;28;20149;-82
2023/07/30 07:50:16;;;;;;;25.35;23.38;;;;;;;28.77;100.00;100676.03;5034502;28;20037;-81
2023/07/30 07:52:43;;;;;;;27.45;25.45;;;;;;;28.72;100.00;100681.69;5034255;28;20507;-82
2023/07/30 07:55:11;;;;;;;28.40;26.20;;;;;;;28.76;100.00;100669.78;5032919;28;20041;-81
2023/07/30 07:57:38;;;;;;;26.80;24.70;;;;;;;29.02;100.00;100682.53;5034151;28;20060;-81
2023/07/30 08:00:06;;;;;;;26.48;24.38;;;;;;;29.24;100.00;100669.69;5038358;28;20041;-82
2023/07/30 08:02:33;;;;;;;26.05;23.95;;;;;;;28.49;100.00;100672.94;5036807;28;20057;-81
2023/07/30 08:05:00;;;;;;;25.45;23.23;;;;;;;29.24;100.00;100665.00;5036346;28;20057;-86
2023/07/30 08:07:27;;;;;;;26.88;24.77;;;;;;;29.43;100.00;100661.78;5035464;28;20441;-86
2023/07/30 08:09:54;;;;;;;26.50;24.40;;;;;;;29.65;100.00;100658.75;5033360;28;20049;-86
2023/07/30 08:12:22;;;;;;;27.07;24.97;;;;;;;29.95;100.00;100655.06;5035097;28;20080;-86
2023/07/30 08:14:50;;;;;;;28.48;26.58;;;;;;;29.50;100.00;100656.56;5035393;28;20057;-86
2023/07/30 08:17:17;;;;;;;25.45;23.60;;;;;;;29.66;100.00;100649.38;5031348;28;20049;-86
2023/07/30 08:19:44;;;;;;;25.15;22.88;;;;;;;30.12;100.00;100655.66;5034855;28;20050;-86
2023/07/30 08:22:11;;;;;;;24.60;22.63;;;;;;;29.97;100.00;100652.78;5033447;28;20069;-87
2023/07/30 08:24:37;;;;;;;25.83;23.83;;;;;;;29.54;100.00;100651.25;5033011;28;20045;-87
2023/07/30 08:27:06;;;;;;;28.05;25.50;;;;;;;29.99;100.00;100645.06;5032511;28;20494;-87
2023/07/30 08:29:36;;;;;;;26.63;24.48;;;;;;;29.42;100.00;100652.78;5033223;28;20078;-82
2023/07/30 08:32:02;;;;;;;25.58;23.58;;;;;;;28.71;100.00;100653.56;5032744;28;20069;-86
2023/07/30 08:34:29;;;;;;;24.67;22.58;;;;;;;28.92;100.00;100652.78;5039259;28;20045;-82
2023/07/30 08:36:56;;;;;;;27.40;25.23;;;;;;;29.35;100.00;100657.19;5033686;28;20110;-82
2023/07/30 08:39:23;;;;;;;26.00;23.98;;;;;;;30.02;100.00;100645.16;5036245;28;20041;-81
2023/07/30 08:41:50;;;;;;;26.27;24.17;;;;;;;29.32;100.00;100639.53;5030789;28;20045;-82
2023/07/30 08:44:17;;;;;;;23.67;21.58;;;;;;;29.93;100.00;100641.72;5034264;28;20056;-81
2023/07/30 08:46:46;;;;;;;23.27;21.38;;;;;;;29.54;100.00;100632.09;5033890;28;20057;-82
2023/07/30 08:49:13;;;;;;;22.70;20.80;;;;;;;29.50;100.00;100628.41;5032660;28;20099;-82
2023/07/30 08:51:42;;;;;;;23.05;21.10;;;;;;;28.67;100.00;100633.50;5031851;28;20041;-82
2023/07/30 08:54:10;;;;;;;23.67;21.65;;;;;;;30.56;100.00;100636.81;5032143;28;20045;-82
2023/07/30 08:56:37;;;;;;;24.10;21.77;;;;;;;30.26;99.43;100628.00;5031883;28;20430;-82
2023/07/30 08:59:06;;;;;;;23.25;21.25;;;;;;;29.43;100.00;100631.69;5031112;28;20053;-87
2023/07/30 09:01:38;;;;;;;23.75;21.70;;;;;;;29.50;100.00;100629.22;5035717;28;20055;-86
2023/07/30 09:04:08;;;;;;;24.63;22.48;;;;;;;30.56;92.23;100628.59;5033974;28;20137;-87
2023/07/30 09:06:35;;;;;;;25.17;23.05;;;;;;;30.52;84.69;100635.06;5032373;28;20058;-87
2023/07/30 09:09:03;;;;;;;25.13;23.02;;;;;;;30.63;80.72;100629.94;5033839;28;20052;-86
2023/07/30 09:11:32;;;;;;;25.50;23.30;;;;;;;31.11;84.97;100622.81;5034434;28;20107;-87
2023/07/30 09:14:03;;;;;;;26.05;23.95;;;;;;;31.55;91.44;100611.91;5031517;28;20109;-87
2023/07/30 09:16:29;;;;;;;26.40;24.30;;;;;;;30.65;100.00;100614.72;5031283;28;20130;-82
2023/07/30 09:18:56;;;;;;;24.85;22.45;;;;;;;30.90;97.80;100614.75;5030121;28;20528;-81
2023/07/30 09:21:32;;;;;;;27.70;25.40;;;;;;;30.70;100.00;100608.22;5030917;28;20056;-82
2023/07/30 09:24:05;;;;;;;26.20;24.00;;;;;;;31.11;87.18;100600.88;5030329;28;20045;-82
2023/07/30 09:26:47;;;;;;;24.85;22.77;;;;;;;30.73;92.29;100596.59;5035611;28;20050;-86
2023/07/30 09:29:15;;;;;;;25.52;23.33;;;;;;;30.75;89.66;100603.31;5034372;28;20426;-87
2023/07/30 09:31:55;;;;;;;27.52;25.23;;;;;;;31.60;81.08;100587.78;5041220;28;20050;-86
2023/07/30 09:34:23;;;;;;;26.20;24.20;;;;;;;31.08;85.61;100585.13;5031143;28;20041;-86
2023/07/30 09:36:54;;;;;;;24.23;22.20;;;;;;;31.17;92.63;100588.50;5031710;28;20052;-87
2023/07/30 09:39:28;;;;;;;24.17;22.17;;;;;;;31.53;77.03;100575.78;5033046;28;20076;-85
2023/07/30 09:42:01;;;;;;;24.70;22.50;;;;;;;29.78;100.00;100582.16;5033695;28;20041;-86
2023/07/30 09:44:28;;;;;;;22.60;20.60;;;;;;;30.15;100.00;100585.72;5029801;28;20569;-87
2023/07/30 09:46:58;;;;;;;22.77;20.77;;;;;;;32.10;66.43;100585.53;5032743;28;20448;-87
2023/07/30 09:49:26;;;;;;;22.40;20.30;;;;;;;31.71;73.89;100580.63;5036838;28;20045;-87
2023/07/30 09:51:55;;;;;;;22.65;20.75;;;;;;;32.40;62.85;100578.41;5033233;28;20060;-88
2023/07/30 09:54:22;;;;;;;21.65;19.73;;;;;;;31.23;72.74;100571.47;5030971;28;20038;-85
2023/07/30 09:56:49;;;;;;;21.17;19.48;;;;;;;30.95;95.12;100576.91;5031852;28;20049;-82
2023/07/30 09:59:16;;;;;;;22.52;20.73;;;;;;;32.13;63.29;100574.63;5029547;28;20414;-82
2023/07/30 10:01:45;;;;;;;23.88;21.77;;;;;;;30.85;93.24;100566.44;5030249;28;20045;-82
2023/07/30 10:04:32;;;;;;;23.63;21.45;;;;;;;32.78;57.66;100567.91;5037170;28;20069;-87
2023/07/30 10:07:18;;;;;;;23.63;21.75;;;;;;;32.25;51.60;100567.44;5032491;28;20068;-87
2023/07/30 10:09:53;;;;;;;22.60;20.67;;;;;;;31.61;69.87;100556.41;5031088;28;20053;-87
2023/07/30 10:12:25;;;;;;;23.52;21.42;;;;;;;31.81;60.21;100554.59;5034836;28;20107;-81
2023/07/30 10:14:59;;;;;;;24.85;22.77;;;;;;;32.26;49.94;100552.56;5029432;28;20042;-81
2023/07/30 10:17:28;;;;;;;23.40;21.30;;;;;;;32.19;63.20;100549.63;5029406;28;20510;-86
2023/07/30 10:19:55;;;;;;;22.35;20.35;;;;;;;31.83;69.20;100546.81;5032114;28;20058;-87
2023/07/30 10:22:25;;;;;;;21.25;19.65;;;;;;;32.40;58.55;100539.13;5033770;28;20049;-81
2023/07/30 10:24:59;;;;;;;24.67;22.77;;;;;;;31.75;74.05;100547.78;5032841;28;20099;-82
2023/07/30 10:27:27;;;;;;;24.83;22.60;;;;;;;32.54;45.45;100541.44;5039753;28;20071;-82
2023/07/30 10:30:11;;;;;;;24.55;22.65;;;;;;;31.89;64.50;100542.69;5032851;28;20057;-85
2023/07/30 10:32:59;;;;;;;21.77;19.98;;;;;;;31.77;71.06;100541.91;5031281;28;20489;-82
2023/07/30 10:35:42;;;;;;;23.95;22.05;;;;;;;31.82;71.75;100528.72;5028187;28;20045;-83
2023/07/30 10:38:20;;;;;;;23.45;21.65;;;;;;;32.61;47.32;100527.84;5027514;28;20049;-85
2023/07/30 10:41:10;;;;;;;22.20;20.50;;;;;;;32.56;59.84;100525.41;5033028;28;20041;-85
2023/07/30 10:44:14;;;;;;;23.27;21.33;;;;;;;32.22;66.36;100529.69;5032151;28;20054;-83
2023/07/30 10:46:41;;;;;;;23.65;21.85;;;;;;;33.15;45.37;100518.75;5024864;28;20593;-84
2023/07/30 10:49:26;;;;;;;22.70;20.48;;;;;;;32.81;53.37;100514.94;5089410;27;20376;-82
2023/07/30 10:51:54;;;;;;;24.20;21.90;;;;;;;32.48;42.12;100516.19;5089606;28;20056;-82
2023/07/30 10:54:21;;;;;;;24.38;22.50;;;;;;;32.56;48.83;100523.44;5088392;28;20052;-83
2023/07/30 10:56:49;;;;;;;25.95;20.40;;;;;;;33.07;45.31;100514.28;5088003;28;20093;-83
2023/07/30 10:59:17;;;;;;;22.77;20.98;;;;;;;33.18;38.69;100511.75;5088419;28;20055;-86
2023/07/30 11:01:45;;;;;;;22.27;20.27;;;;;;;32.34;60.55;100502.09;5079101;28;20498;-82
2023/07/30 11:04:14;;;;;;;25.85;23.48;;;;;;;31.40;52.83;100500.97;5079649;28;20056;-84
2023/07/30 11:06:47;;;;;;;24.88;22.52;;;;;;;31.36;84.22;100495.41;5085596;28;20044;-84
2023/07/30 11:09:26;;;;;;;24.60;22.70;;;;;;;31.34;78.23;100505.94;5077915;28;20040;-85